Time;durP1;ratioP1;P1;durP2;ratioP2;P2;SDS_P1;SDS_P2;PMS_P1;PMS_P2;Temp;Humidity;BMP_temperature;BMP_pressure;BME280_temperature;BME280_humidity;BME280_pressure;Samples;Min_cycle;Max_cycle;Signal;HPM_P1;HPM_P2
2022/03/31 00:01:30;;;;;;;;;;;23.80;37.60;;;;;;1565969;75;797;-62
2022/03/31 00:03:32;;;;;;;;;;;23.70;37.60;;;;;;1563130;75;1931;-63
2022/03/31 00:05:34;;;;;;;;;;;23.80;37.60;;;;;;1563766;75;1150;-63
2022/03/31 00:07:38;;;;;;;;;;;23.80;37.60;;;;;;1563147;76;865;-62
2022/03/31 00:09:40;;;;;;;;;;;23.80;37.70;;;;;;1561723;76;1915;-61
2022/03/31 00:11:42;;;;;;;;;;;23.80;37.70;;;;;;1550657;76;745;-66
2022/03/31 00:13:43;;;;;;;;;;;23.70;37.70;;;;;;1563901;75;791;-63
2022/03/31 00:15:46;;;;;;;;;;;23.80;37.80;;;;;;1563001;76;1157;-62
2022/03/31 00:17:47;;;;;;;;;;;23.80;37.70;;;;;;1563620;75;759;-62
2022/03/31 00:19:49;;;;;;;;;;;23.80;37.70;;;;;;1563657;75;750;-62
2022/03/31 00:32:31;;;;;;;;;;;23.70;37.80;;;;;;1563631;75;1742;-63
2022/03/31 00:34:35;;;;;;;;;;;23.70;37.80;;;;;;1563950;75;790;-63
2022/03/31 00:36:36;;;;;;;;;;;23.70;37.90;;;;;;1553345;76;1646;-64
2022/03/31 00:38:38;;;;;;;;;;;23.70;37.90;;;;;;1563809;75;729;-62
2022/03/31 00:40:40;;;;;;;;;;;23.70;37.90;;;;;;1553697;75;699;-63
2022/03/31 00:42:42;;;;;;;;;;;23.70;37.90;;;;;;1563756;75;786;-63
2022/03/31 00:44:44;;;;;;;;;;;23.70;37.90;;;;;;1560054;75;1926;-63
2022/03/31 00:46:47;;;;;;;;;;;23.70;37.90;;;;;;1563661;75;1115;-63
2022/03/31 00:48:49;;;;;;;;;;;23.70;37.90;;;;;;1563680;75;614;-62
2022/03/31 00:50:51;;;;;;;;;;;23.70;37.90;;;;;;1563241;76;762;-62
2022/03/31 00:52:53;;;;;;;;;;;23.70;37.90;;;;;;1562959;75;672;-63
2022/03/31 00:54:55;;;;;;;;;;;23.70;37.90;;;;;;1563373;75;791;-63
2022/03/31 00:56:57;;;;;;;;;;;23.70;37.90;;;;;;1563592;75;1144;-63
2022/03/31 00:58:59;;;;;;;;;;;23.70;37.80;;;;;;1563160;76;736;-64
2022/03/31 01:01:00;;;;;;;;;;;23.70;37.90;;;;;;1563653;75;772;-65
2022/03/31 01:03:03;;;;;;;;;;;23.70;37.90;;;;;;1562538;76;801;-64
2022/03/31 01:05:06;;;;;;;;;;;23.70;37.80;;;;;;1563607;76;1926;-63
2022/03/31 01:07:07;;;;;;;;;;;23.70;37.90;;;;;;1563648;75;1141;-63
2022/03/31 01:09:09;;;;;;;;;;;23.70;37.90;;;;;;1563385;76;849;-63
2022/03/31 01:11:11;;;;;;;;;;;23.70;37.80;;;;;;1563717;75;825;-66
2022/03/31 01:13:13;;;;;;;;;;;23.70;37.80;;;;;;1563325;75;747;-63
2022/03/31 01:15:17;;;;;;;;;;;23.70;37.90;;;;;;1563676;75;821;-62
2022/03/31 01:17:18;;;;;;;;;;;23.70;37.90;;;;;;1552097;75;729;-64
2022/03/31 01:19:21;;;;;;;;;;;23.70;37.90;;;;;;1561284;75;817;-64
2022/03/31 01:21:22;;;;;;;;;;;23.70;37.90;;;;;;1563665;75;662;-64
2022/03/31 01:23:24;;;;;;;;;;;23.70;37.90;;;;;;1563172;76;1946;-64
2022/03/31 01:25:26;;;;;;;;;;;23.70;37.90;;;;;;1563024;75;1180;-64
2022/03/31 01:27:28;;;;;;;;;;;23.70;38.00;;;;;;1551257;75;698;-65
2022/03/31 01:29:30;;;;;;;;;;;23.60;37.80;;;;;;1563768;75;777;-63
2022/03/31 01:31:32;;;;;;;;;;;23.70;38.00;;;;;;1563631;75;751;-64
2022/03/31 01:33:34;;;;;;;;;;;23.60;37.80;;;;;;1562690;75;662;-63
2022/03/31 01:35:36;;;;;;;;;;;23.60;37.80;;;;;;1563518;76;1121;-65
2022/03/31 01:37:38;;;;;;;;;;;23.70;38.00;;;;;;1563628;75;752;-65
2022/03/31 01:39:40;;;;;;;;;;;23.70;38.10;;;;;;1558494;76;771;-64
2022/03/31 01:41:42;;;;;;;;;;;23.60;37.90;;;;;;1565441;75;628;-64
2022/03/31 01:43:44;;;;;;;;;;;23.60;38.00;;;;;;1562906;75;1931;-64
2022/03/31 01:45:46;;;;;;;;;;;23.60;37.90;;;;;;1563639;75;1225;-64
2022/03/31 01:47:48;;;;;;;;;;;23.70;38.00;;;;;;1563653;75;748;-64
2022/03/31 01:49:49;;;;;;;;;;;23.60;37.90;;;;;;1563175;76;758;-63
2022/03/31 01:51:51;;;;;;;;;;;23.70;38.10;;;;;;1563171;75;791;-64
2022/03/31 01:53:53;;;;;;;;;;;23.60;38.00;;;;;;1563681;75;798;-62
2022/03/31 01:55:55;;;;;;;;;;;23.60;38.00;;;;;;1563118;76;1133;-63
2022/03/31 01:57:57;;;;;;;;;;;23.60;38.00;;;;;;1563586;75;729;-63
2022/03/31 02:00:02;;;;;;;;;;;23.60;38.00;;;;;;1563402;76;781;-63
2022/03/31 02:02:02;;;;;;;;;;;23.60;38.00;;;;;;1571461;75;1756;-65
2022/03/31 02:04:04;;;;;;;;;;;23.60;38.00;;;;;;1562991;75;1952;-62
2022/03/31 02:06:06;;;;;;;;;;;23.60;38.10;;;;;;1554000;75;1158;-63
2022/03/31 02:08:08;;;;;;;;;;;23.70;38.10;;;;;;1563224;76;747;-63
2022/03/31 02:10:10;;;;;;;;;;;23.60;38.00;;;;;;1563729;75;765;-63
2022/03/31 02:12:12;;;;;;;;;;;23.70;38.10;;;;;;1563345;76;803;-60
2022/03/31 02:14:14;;;;;;;;;;;23.60;38.00;;;;;;1563021;76;695;-63
2022/03/31 02:16:16;;;;;;;;;;;23.60;38.10;;;;;;1563669;75;1137;-63
2022/03/31 02:18:18;;;;;;;;;;;23.60;38.00;;;;;;1563734;76;767;-64
2022/03/31 02:20:20;;;;;;;;;;;23.60;38.00;;;;;;1563693;75;735;-63
2022/03/31 02:22:22;;;;;;;;;;;23.60;38.00;;;;;;1563282;76;681;-63
2022/03/31 02:24:24;;;;;;;;;;;23.70;38.10;;;;;;1563936;75;1909;-63
2022/03/31 02:26:26;;;;;;;;;;;23.70;38.10;;;;;;1567643;75;1137;-65
2022/03/31 02:28:28;;;;;;;;;;;23.70;37.90;;;;;;1561101;75;741;-64
2022/03/31 02:30:30;;;;;;;;;;;23.70;37.90;;;;;;1563634;75;742;-62
2022/03/31 02:32:31;;;;;;;;;;;23.80;37.90;;;;;;1556005;75;838;-63
2022/03/31 02:34:34;;;;;;;;;;;23.80;37.80;;;;;;1564958;75;772;-62
2022/03/31 02:36:35;;;;;;;;;;;23.90;37.90;;;;;;1563730;75;1150;-63
2022/03/31 02:38:37;;;;;;;;;;;23.80;37.80;;;;;;1563699;75;763;-65
2022/03/31 02:40:39;;;;;;;;;;;23.90;37.80;;;;;;1562797;76;745;-64
2022/03/31 02:42:41;;;;;;;;;;;23.90;37.80;;;;;;1563009;75;691;-63
2022/03/31 02:44:44;;;;;;;;;;;24.00;37.80;;;;;;1563657;75;1950;-65
2022/03/31 02:46:46;;;;;;;;;;;24.00;37.70;;;;;;1563506;75;1133;-63
2022/03/31 02:48:48;;;;;;;;;;;23.90;37.80;;;;;;1563184;75;721;-63
2022/03/31 02:50:49;;;;;;;;;;;24.00;37.80;;;;;;1563009;76;753;-64
2022/03/31 02:55:28;;;;;;;;;;;24.00;37.70;;;;;;1562428;75;729;-66
2022/03/31 02:57:30;;;;;;;;;;;24.00;37.70;;;;;;1563514;75;705;-64
2022/03/31 02:59:31;;;;;;;;;;;24.10;37.60;;;;;;1564820;72;2100;-63
2022/03/31 03:01:33;;;;;;;;;;;24.20;37.60;;;;;;1549814;77;665;-63
2022/03/31 03:03:35;;;;;;;;;;;24.10;37.60;;;;;;1549809;77;633;-63
2022/03/31 03:05:37;;;;;;;;;;;24.20;37.60;;;;;;1548666;76;1949;-64
2022/03/31 03:07:39;;;;;;;;;;;24.20;37.60;;;;;;1561047;75;763;-64
2022/03/31 03:09:41;;;;;;;;;;;24.20;37.50;;;;;;1574198;75;1162;-69
2022/03/31 03:11:43;;;;;;;;;;;24.20;37.60;;;;;;1576714;75;734;-70
2022/03/31 03:13:45;;;;;;;;;;;24.20;37.60;;;;;;1575915;74;714;-71
2022/03/31 03:15:48;;;;;;;;;;;24.20;37.60;;;;;;1576663;75;713;-70
2022/03/31 03:17:50;;;;;;;;;;;24.20;37.50;;;;;;1576621;75;713;-69
2022/03/31 03:19:52;;;;;;;;;;;24.20;37.40;;;;;;1576905;75;1201;-69
2022/03/31 03:21:54;;;;;;;;;;;24.20;37.40;;;;;;1576585;75;766;-69
2022/03/31 03:23:56;;;;;;;;;;;24.20;37.40;;;;;;1572089;75;708;-69
2022/03/31 03:25:57;;;;;;;;;;;24.30;37.50;;;;;;1546650;76;1943;-69
2022/03/31 03:27:59;;;;;;;;;;;24.20;37.30;;;;;;1579643;74;1151;-70
2022/03/31 03:30:01;;;;;;;;;;;24.20;37.40;;;;;;1551813;76;794;-68
2022/03/31 03:32:03;;;;;;;;;;;24.20;37.40;;;;;;1563951;75;789;-67
2022/03/31 03:34:05;;;;;;;;;;;24.10;37.50;;;;;;1573480;75;731;-67
2022/03/31 03:36:10;;;;;;;;;;;24.10;37.60;;;;;;1564383;76;804;-67
2022/03/31 03:38:11;;;;;;;;;;;24.10;37.60;;;;;;1560078;76;1496;-66
2022/03/31 03:40:15;;;;;;;;;;;24.20;37.60;;;;;;1566900;75;720;-65
2022/03/31 03:42:17;;;;;;;;;;;24.10;37.70;;;;;;1563988;76;721;-68
2022/03/31 03:44:18;;;;;;;;;;;24.20;37.60;;;;;;1564131;76;1939;-69
2022/03/31 03:46:20;;;;;;;;;;;24.10;37.60;;;;;;1564270;76;866;-67
2022/03/31 03:48:22;;;;;;;;;;;24.10;37.60;;;;;;1570032;75;1117;-67
2022/03/31 03:50:25;;;;;;;;;;;24.00;37.50;;;;;;1566662;75;711;-68
2022/03/31 03:52:27;;;;;;;;;;;24.00;37.50;;;;;;1564343;76;718;-68
2022/03/31 03:54:29;;;;;;;;;;;23.90;37.50;;;;;;1564007;76;797;-70
2022/03/31 03:56:31;;;;;;;;;;;23.90;37.50;;;;;;1564365;76;736;-68
2022/03/31 03:58:33;;;;;;;;;;;24.00;37.60;;;;;;1564420;76;1146;-68
2022/03/31 04:00:34;;;;;;;;;;;24.00;37.60;;;;;;1564340;76;1128;-68
2022/03/31 04:02:37;;;;;;;;;;;24.00;37.50;;;;;;1563084;76;775;-67
2022/03/31 04:04:39;;;;;;;;;;;24.00;37.60;;;;;;1564395;76;1923;-70
2022/03/31 04:06:40;;;;;;;;;;;23.90;37.60;;;;;;1572934;75;691;-66
2022/03/31 04:08:42;;;;;;;;;;;24.00;37.50;;;;;;1564454;76;1170;-66
2022/03/31 04:10:44;;;;;;;;;;;24.00;37.50;;;;;;1564474;76;737;-67
2022/03/31 04:12:46;;;;;;;;;;;23.90;37.50;;;;;;1563926;76;750;-66
2022/03/31 04:14:48;;;;;;;;;;;24.00;38.00;;;;;;1564523;76;623;-67
2022/03/31 04:16:50;;;;;;;;;;;24.00;37.50;;;;;;1559891;76;770;-67
2022/03/31 04:18:52;;;;;;;;;;;23.90;37.40;;;;;;1560571;76;1173;-70
2022/03/31 04:20:54;;;;;;;;;;;24.00;37.40;;;;;;1561880;76;703;-71
2022/03/31 04:22:55;;;;;;;;;;;24.00;37.30;;;;;;1564218;76;686;-70
2022/03/31 04:24:57;;;;;;;;;;;24.00;37.30;;;;;;1563879;76;1930;-69
2022/03/31 04:26:59;;;;;;;;;;;23.90;37.30;;;;;;1564371;76;801;-72
2022/03/31 04:29:01;;;;;;;;;;;23.90;37.50;;;;;;1564322;76;1141;-69
2022/03/31 04:31:03;;;;;;;;;;;23.90;37.50;;;;;;1564202;76;800;-67
2022/03/31 04:33:05;;;;;;;;;;;23.90;37.60;;;;;;1563431;76;714;-69
2022/03/31 04:35:07;;;;;;;;;;;23.90;37.70;;;;;;1563112;76;778;-70
2022/03/31 04:37:09;;;;;;;;;;;23.90;37.80;;;;;;1564216;76;837;-67
2022/03/31 04:39:12;;;;;;;;;;;23.90;37.80;;;;;;1564206;76;1148;-67
2022/03/31 04:41:14;;;;;;;;;;;23.90;37.80;;;;;;1563929;76;715;-71
2022/03/31 04:43:16;;;;;;;;;;;23.90;37.80;;;;;;1564227;76;696;-71
2022/03/31 04:45:18;;;;;;;;;;;23.90;37.90;;;;;;1564038;76;1928;-72
2022/03/31 04:47:20;;;;;;;;;;;23.90;38.10;;;;;;1564245;76;723;-71
2022/03/31 04:49:22;;;;;;;;;;;24.10;38.40;;;;;;1563946;76;1128;-71
2022/03/31 04:51:24;;;;;;;;;;;24.10;38.50;;;;;;1563258;76;825;-71
2022/03/31 04:53:25;;;;;;;;;;;24.10;38.60;;;;;;1564116;76;705;-67
2022/03/31 04:55:29;;;;;;;;;;;24.30;38.90;;;;;;1562564;76;716;-73
2022/03/31 04:57:31;;;;;;;;;;;24.20;38.90;;;;;;1564227;76;809;-71
2022/03/31 04:59:32;;;;;;;;;;;24.30;38.90;;;;;;1564054;76;1149;-68
2022/03/31 05:01:34;;;;;;;;;;;24.40;39.00;;;;;;1564306;76;555;-70
2022/03/31 05:03:36;;;;;;;;;;;24.30;38.80;;;;;;1563577;76;762;-69
2022/03/31 05:05:38;;;;;;;;;;;24.40;38.90;;;;;;1564011;76;1942;-72
2022/03/31 05:07:40;;;;;;;;;;;24.40;39.00;;;;;;1564214;76;727;-70
2022/03/31 05:09:42;;;;;;;;;;;24.50;38.70;;;;;;1564213;76;1137;-69
2022/03/31 05:11:44;;;;;;;;;;;24.60;38.40;;;;;;1563252;76;749;-71
2022/03/31 05:13:45;;;;;;;;;;;24.60;38.40;;;;;;1564259;76;813;-71
2022/03/31 05:15:47;;;;;;;;;;;24.60;38.30;;;;;;1564180;76;829;-70
2022/03/31 05:17:49;;;;;;;;;;;24.60;38.40;;;;;;1553482;76;725;-68
2022/03/31 05:19:51;;;;;;;;;;;24.50;38.40;;;;;;1564072;76;1121;-69
2022/03/31 05:21:53;;;;;;;;;;;24.60;38.40;;;;;;1563505;76;666;-71
2022/03/31 05:23:55;;;;;;;;;;;24.70;38.30;;;;;;1564230;76;759;-70
2022/03/31 05:25:57;;;;;;;;;;;24.70;38.10;;;;;;1560064;76;1932;-65
2022/03/31 05:28:00;;;;;;;;;;;24.80;38.10;;;;;;1564188;76;1110;-75
2022/03/31 05:30:01;;;;;;;;;;;24.80;38.00;;;;;;1564242;76;707;-70
2022/03/31 05:32:04;;;;;;;;;;;24.80;37.90;;;;;;1563701;76;793;-69
2022/03/31 05:34:06;;;;;;;;;;;24.90;37.90;;;;;;1564098;76;723;-64
2022/03/31 05:36:08;;;;;;;;;;;24.80;37.50;;;;;;1564227;76;743;-66
2022/03/31 05:38:09;;;;;;;;;;;24.90;37.20;;;;;;1564017;76;1148;-63
2022/03/31 05:40:11;;;;;;;;;;;24.80;37.10;;;;;;1564252;76;746;-63
2022/03/31 05:42:13;;;;;;;;;;;24.70;36.90;;;;;;1563906;76;713;-64
2022/03/31 05:44:15;;;;;;;;;;;24.70;36.90;;;;;;1564104;76;716;-65
2022/03/31 05:46:17;;;;;;;;;;;24.60;36.50;;;;;;1564180;76;1912;-65
2022/03/31 05:48:19;;;;;;;;;;;24.70;36.80;;;;;;1564261;76;1150;-66
2022/03/31 05:50:21;;;;;;;;;;;24.50;36.60;;;;;;1562634;76;681;-65
2022/03/31 05:52:23;;;;;;;;;;;24.50;36.50;;;;;;1564091;76;751;-66
2022/03/31 05:54:25;;;;;;;;;;;24.60;36.60;;;;;;1563368;76;763;-65
2022/03/31 05:56:27;;;;;;;;;;;24.50;36.70;;;;;;1563434;76;798;-66
2022/03/31 05:58:29;;;;;;;;;;;24.50;36.70;;;;;;1563898;76;1205;-64
2022/03/31 06:00:31;;;;;;;;;;;24.50;36.50;;;;;;1563575;76;1000;-64
2022/03/31 06:02:32;;;;;;;;;;;24.50;36.40;;;;;;1564088;76;757;-65
2022/03/31 06:04:34;;;;;;;;;;;24.50;36.60;;;;;;1562677;76;705;-64
2022/03/31 06:06:36;;;;;;;;;;;24.40;36.50;;;;;;1564033;76;1936;-65
2022/03/31 06:08:38;;;;;;;;;;;24.40;36.50;;;;;;1564269;76;1162;-65
2022/03/31 06:10:40;;;;;;;;;;;24.40;36.40;;;;;;1557367;76;722;-64
2022/03/31 06:12:42;;;;;;;;;;;24.40;36.50;;;;;;1562837;76;717;-67
2022/03/31 06:14:44;;;;;;;;;;;24.30;36.60;;;;;;1564008;76;752;-64
2022/03/31 06:16:49;;;;;;;;;;;24.30;36.70;;;;;;1563822;76;698;-67
2022/03/31 06:18:50;;;;;;;;;;;24.30;36.80;;;;;;1563556;76;1484;-64
2022/03/31 06:20:52;;;;;;;;;;;24.30;36.80;;;;;;1563970;76;700;-63
2022/03/31 06:22:53;;;;;;;;;;;24.20;36.70;;;;;;1563996;76;778;-64
2022/03/31 06:24:55;;;;;;;;;;;24.20;36.70;;;;;;1563558;76;716;-64
2022/03/31 06:26:57;;;;;;;;;;;24.20;36.80;;;;;;1564078;76;1935;-67
2022/03/31 06:28:59;;;;;;;;;;;24.20;36.60;;;;;;1563706;76;1168;-70
2022/03/31 06:31:01;;;;;;;;;;;24.20;36.60;;;;;;1564132;76;723;-68
2022/03/31 06:33:03;;;;;;;;;;;24.20;36.60;;;;;;1564009;76;755;-66
2022/03/31 06:35:05;;;;;;;;;;;24.20;36.80;;;;;;1564062;76;702;-69
2022/03/31 06:37:07;;;;;;;;;;;24.10;36.60;;;;;;1563685;76;788;-70
2022/03/31 06:39:09;;;;;;;;;;;24.10;36.70;;;;;;1563650;76;1149;-70
2022/03/31 06:41:14;;;;;;;;;;;24.10;36.60;;;;;;1557616;76;796;-70
2022/03/31 06:43:15;;;;;;;;;;;24.00;36.50;;;;;;1563817;76;1629;-70
2022/03/31 06:45:17;;;;;;;;;;;24.00;36.40;;;;;;1564100;76;1957;-70
2022/03/31 06:47:19;;;;;;;;;;;23.90;36.30;;;;;;1562334;76;750;-71
2022/03/31 06:49:21;;;;;;;;;;;23.90;36.30;;;;;;1564036;76;1130;-70
2022/03/31 06:51:23;;;;;;;;;;;23.80;36.20;;;;;;1564144;76;727;-70
2022/03/31 06:53:25;;;;;;;;;;;23.80;36.30;;;;;;1564225;76;775;-70
2022/03/31 06:55:27;;;;;;;;;;;23.70;36.20;;;;;;1563935;76;672;-70
2022/03/31 06:57:29;;;;;;;;;;;23.80;36.10;;;;;;1561873;76;623;-70
2022/03/31 06:59:31;;;;;;;;;;;23.70;36.00;;;;;;1564124;76;1129;-71
2022/03/31 07:01:33;;;;;;;;;;;23.70;36.10;;;;;;1564058;76;788;-70
2022/03/31 07:03:36;;;;;;;;;;;23.70;36.00;;;;;;1563366;76;785;-70
2022/03/31 07:05:38;;;;;;;;;;;23.70;36.10;;;;;;1562735;76;1928;-71
2022/03/31 07:07:40;;;;;;;;;;;23.60;35.90;;;;;;1560903;76;699;-69
2022/03/31 07:09:42;;;;;;;;;;;23.70;35.80;;;;;;1559737;76;1140;-72
2022/03/31 07:11:43;;;;;;;;;;;23.60;35.60;;;;;;1563951;76;790;-72
2022/03/31 07:13:47;;;;;;;;;;;23.60;35.50;;;;;;1563823;76;747;-72
2022/03/31 07:15:49;;;;;;;;;;;23.60;35.30;;;;;;1563932;76;654;-70
2022/03/31 07:17:51;;;;;;;;;;;23.50;35.40;;;;;;1564132;76;706;-73
2022/03/31 07:19:52;;;;;;;;;;;23.40;35.10;;;;;;1564097;76;1208;-71
2022/03/31 07:21:55;;;;;;;;;;;23.40;35.00;;;;;;1563647;76;767;-71
2022/03/31 07:23:57;;;;;;;;;;;23.40;34.90;;;;;;1563903;76;633;-68
2022/03/31 07:25:59;;;;;;;;;;;23.40;34.90;;;;;;1563862;76;1908;-69
2022/03/31 07:28:00;;;;;;;;;;;23.30;34.90;;;;;;1563857;76;1134;-69
2022/03/31 07:30:02;;;;;;;;;;;23.30;34.70;;;;;;1564079;76;716;-69
2022/03/31 07:32:04;;;;;;;;;;;23.30;34.70;;;;;;1563833;76;777;-68
2022/03/31 07:34:06;;;;;;;;;;;23.20;34.60;;;;;;1563784;76;724;-70
2022/03/31 07:36:10;;;;;;;;;;;23.20;34.50;;;;;;1562986;76;745;-69
2022/03/31 07:38:12;;;;;;;;;;;23.20;34.50;;;;;;1563964;76;1156;-70
2022/03/31 07:40:13;;;;;;;;;;;23.20;34.40;;;;;;1564148;75;739;-69
2022/03/31 07:42:15;;;;;;;;;;;23.10;34.40;;;;;;1564053;76;731;-68
2022/03/31 07:44:17;;;;;;;;;;;23.10;34.30;;;;;;1562732;76;663;-68
2022/03/31 07:46:19;;;;;;;;;;;23.10;34.30;;;;;;1564119;76;1931;-68
2022/03/31 07:48:21;;;;;;;;;;;23.10;34.30;;;;;;1563991;76;1153;-68
2022/03/31 07:50:23;;;;;;;;;;;23.10;34.20;;;;;;1564223;76;700;-67
2022/03/31 07:52:25;;;;;;;;;;;23.00;34.10;;;;;;1563861;76;700;-68
2022/03/31 07:54:27;;;;;;;;;;;23.00;34.00;;;;;;1563309;76;684;-70
2022/03/31 07:56:29;;;;;;;;;;;23.00;34.00;;;;;;1563595;76;727;-68
2022/03/31 07:58:31;;;;;;;;;;;23.00;34.00;;;;;;1564034;76;1162;-70
2022/03/31 08:00:33;;;;;;;;;;;23.00;34.10;;;;;;1557167;75;788;-70
2022/03/31 08:02:35;;;;;;;;;;;22.90;34.00;;;;;;1560939;76;701;-69
2022/03/31 08:04:37;;;;;;;;;;;22.90;34.00;;;;;;1563970;76;736;-69
2022/03/31 08:06:39;;;;;;;;;;;22.90;33.90;;;;;;1564101;76;1952;-68
2022/03/31 08:08:40;;;;;;;;;;;22.90;33.90;;;;;;1551415;76;1175;-68
2022/03/31 08:10:42;;;;;;;;;;;22.80;33.70;;;;;;1564038;76;700;-69
2022/03/31 08:12:45;;;;;;;;;;;22.80;33.80;;;;;;1562180;76;756;-68
2022/03/31 08:14:47;;;;;;;;;;;22.80;33.80;;;;;;1563936;76;696;-68
2022/03/31 08:16:52;;;;;;;;;;;22.70;33.80;;;;;;1564073;76;830;-71
2022/03/31 08:18:54;;;;;;;;;;;22.70;33.80;;;;;;1564058;76;1185;-71
2022/03/31 08:20:57;;;;;;;;;;;22.70;33.70;;;;;;1561170;76;786;-69
2022/03/31 08:22:59;;;;;;;;;;;22.70;33.80;;;;;;1560224;76;703;-69
2022/03/31 08:25:01;;;;;;;;;;;22.70;33.70;;;;;;1564066;76;610;-68
2022/03/31 08:27:03;;;;;;;;;;;22.70;33.60;;;;;;1564114;76;1934;-69
2022/03/31 08:29:05;;;;;;;;;;;22.60;33.60;;;;;;1564302;76;1152;-70
2022/03/31 08:31:07;;;;;;;;;;;22.60;33.60;;;;;;1563915;76;585;-68
2022/03/31 08:33:09;;;;;;;;;;;22.60;33.60;;;;;;1563972;76;767;-69
2022/03/31 08:35:11;;;;;;;;;;;22.60;33.60;;;;;;1563714;76;739;-69
2022/03/31 08:37:13;;;;;;;;;;;22.60;33.60;;;;;;1564179;76;747;-69
2022/03/31 08:39:15;;;;;;;;;;;22.60;33.50;;;;;;1565003;75;1138;-68
2022/03/31 08:41:17;;;;;;;;;;;22.50;33.50;;;;;;1564018;76;621;-70
2022/03/31 08:43:19;;;;;;;;;;;22.60;33.50;;;;;;1563806;76;801;-69
2022/03/31 08:45:21;;;;;;;;;;;22.50;33.60;;;;;;1563927;76;712;-70
2022/03/31 08:47:26;;;;;;;;;;;22.50;33.60;;;;;;1564249;76;1904;-69
2022/03/31 08:49:27;;;;;;;;;;;22.50;33.50;;;;;;1563566;76;1588;-69
2022/03/31 08:51:29;;;;;;;;;;;22.50;33.50;;;;;;1564106;76;792;-71
2022/03/31 08:53:31;;;;;;;;;;;22.50;33.50;;;;;;1563444;76;710;-69
2022/03/31 08:55:33;;;;;;;;;;;22.50;33.50;;;;;;1533819;77;694;-69
2022/03/31 08:57:41;;;;;;;;;;;22.50;33.50;;;;;;1564135;76;704;-71
2022/03/31 08:59:43;;;;;;;;;;;22.40;33.40;;;;;;1543670;74;2075;-69
2022/03/31 09:01:45;;;;;;;;;;;22.40;33.40;;;;;;1520041;77;702;-69
2022/03/31 09:03:47;;;;;;;;;;;22.40;33.40;;;;;;1519844;77;673;-69
2022/03/31 09:05:51;;;;;;;;;;;22.40;33.40;;;;;;1548237;76;751;-69
2022/03/31 09:07:58;;;;;;;;;;;22.30;33.40;;;;;;1534446;75;1929;-69
2022/03/31 09:09:59;;;;;;;;;;;22.30;33.40;;;;;;1518326;76;1551;-69
2022/03/31 09:12:01;;;;;;;;;;;22.40;33.40;;;;;;1521878;78;761;-69
2022/03/31 09:14:05;;;;;;;;;;;22.40;33.40;;;;;;1498676;78;749;-69
2022/03/31 09:16:10;;;;;;;;;;;22.40;33.40;;;;;;1547997;76;739;-69
2022/03/31 09:18:12;;;;;;;;;;;22.30;33.40;;;;;;1533233;76;1108;-69
2022/03/31 09:20:13;;;;;;;;;;;22.40;33.40;;;;;;1534512;75;1173;-72
2022/03/31 09:22:15;;;;;;;;;;;22.30;33.40;;;;;;1526163;77;751;-70
2022/03/31 09:24:17;;;;;;;;;;;22.30;33.40;;;;;;1522151;77;733;-69
2022/03/31 09:26:19;;;;;;;;;;;22.20;33.20;;;;;;1531744;76;1914;-69
2022/03/31 09:28:22;;;;;;;;;;;22.30;33.40;;;;;;1539227;76;1138;-70
2022/03/31 09:30:24;;;;;;;;;;;22.20;33.20;;;;;;1529660;76;803;-71
2022/03/31 09:32:26;;;;;;;;;;;22.20;33.20;;;;;;1525099;75;707;-70
2022/03/31 09:34:28;;;;;;;;;;;22.30;33.40;;;;;;1525410;76;687;-70
2022/03/31 09:36:30;;;;;;;;;;;22.20;33.20;;;;;;1491055;77;1148;-70
2022/03/31 09:38:33;;;;;;;;;;;22.20;33.20;;;;;;1497006;78;1176;-70
2022/03/31 09:40:38;;;;;;;;;;;22.20;33.20;;;;;;1491139;77;692;-70
2022/03/31 09:42:39;;;;;;;;;;;22.10;33.30;;;;;;1532926;75;755;-71
2022/03/31 09:44:42;;;;;;;;;;;22.20;33.30;;;;;;1530084;77;697;-70
2022/03/31 09:46:45;;;;;;;;;;;22.10;33.20;;;;;;1530836;75;1928;-70
2022/03/31 09:48:48;;;;;;;;;;;22.20;33.20;;;;;;1532221;76;1154;-70
2022/03/31 09:50:50;;;;;;;;;;;22.20;33.20;;;;;;1531363;76;707;-70
2022/03/31 09:52:51;;;;;;;;;;;22.10;33.20;;;;;;1532627;76;802;-72
2022/03/31 09:54:53;;;;;;;;;;;22.10;33.20;;;;;;1527702;75;722;-72
2022/03/31 09:56:56;;;;;;;;;;;22.10;33.30;;;;;;1538966;76;739;-70
2022/03/31 09:58:59;;;;;;;;;;;22.10;33.30;;;;;;1527994;76;1091;-70
2022/03/31 10:01:01;;;;;;;;;;;22.10;33.30;;;;;;1515176;78;702;-70
2022/03/31 10:03:04;;;;;;;;;;;22.10;33.20;;;;;;1502148;78;786;-70
2022/03/31 10:05:06;;;;;;;;;;;22.10;33.20;;;;;;1499361;77;721;-72
2022/03/31 10:07:08;;;;;;;;;;;22.10;33.30;;;;;;1505366;78;1935;-72
2022/03/31 10:09:10;;;;;;;;;;;22.10;33.20;;;;;;1524266;76;1161;-71
2022/03/31 10:11:12;;;;;;;;;;;22.00;33.20;;;;;;1542950;75;674;-71
2022/03/31 10:13:16;;;;;;;;;;;22.10;33.30;;;;;;1547445;76;726;-70
2022/03/31 10:15:20;;;;;;;;;;;22.00;33.20;;;;;;1542231;76;1841;-70
2022/03/31 10:17:25;;;;;;;;;;;22.00;33.20;;;;;;1555795;76;816;-70
2022/03/31 10:19:29;;;;;;;;;;;22.00;33.20;;;;;;1558441;76;1233;-70
2022/03/31 10:21:31;;;;;;;;;;;22.10;33.40;;;;;;1555089;76;702;-68
2022/03/31 10:25:52;;;;;;;;;;;22.00;33.20;;;;;;1534416;76;1647;-70
2022/03/31 10:27:54;;;;;;;;;;;22.00;33.30;;;;;;1547118;76;1934;-71
2022/03/31 10:29:58;;;;;;;;;;;21.90;33.20;;;;;;1535011;76;1104;-70
2022/03/31 10:32:00;;;;;;;;;;;22.00;33.10;;;;;;1546400;76;1868;-70
2022/03/31 10:34:02;;;;;;;;;;;21.90;33.20;;;;;;1551032;76;792;-72
2022/03/31 10:36:10;;;;;;;;;;;22.00;33.20;;;;;;1550426;76;730;-70
2022/03/31 10:38:13;;;;;;;;;;;21.90;33.20;;;;;;1540207;76;1535;-70
2022/03/31 10:40:16;;;;;;;;;;;22.00;33.20;;;;;;1549268;76;1096;-71
2022/03/31 10:42:18;;;;;;;;;;;21.90;33.20;;;;;;1546884;75;685;-72
2022/03/31 10:44:21;;;;;;;;;;;22.00;33.10;;;;;;1547570;75;728;-70
2022/03/31 10:46:23;;;;;;;;;;;21.90;33.20;;;;;;1548952;76;835;-70
2022/03/31 10:48:32;;;;;;;;;;;22.00;33.20;;;;;;1496440;78;1947;-70
2022/03/31 10:50:34;;;;;;;;;;;22.00;33.20;;;;;;1494780;78;793;-71
2022/03/31 10:52:36;;;;;;;;;;;22.00;33.10;;;;;;1529831;76;702;-70
2022/03/31 10:54:38;;;;;;;;;;;22.00;33.10;;;;;;1529563;77;786;-70
2022/03/31 10:56:40;;;;;;;;;;;21.90;33.10;;;;;;1522970;77;690;-70
2022/03/31 10:58:42;;;;;;;;;;;21.90;33.20;;;;;;1524946;77;1167;-70
2022/03/31 11:00:44;;;;;;;;;;;21.90;33.10;;;;;;1506520;76;766;-70
2022/03/31 11:02:52;;;;;;;;;;;21.90;33.10;;;;;;1513330;77;781;-73
2022/03/31 11:04:53;;;;;;;;;;;21.90;33.10;;;;;;1491594;78;1712;-71
2022/03/31 11:06:55;;;;;;;;;;;21.90;33.10;;;;;;1525119;77;1920;-71
2022/03/31 11:08:57;;;;;;;;;;;21.90;33.10;;;;;;1527854;76;1084;-70
2022/03/31 11:10:59;;;;;;;;;;;21.90;33.10;;;;;;1525827;76;743;-69
2022/03/31 11:13:01;;;;;;;;;;;21.90;33.10;;;;;;1528180;77;740;-71
2022/03/31 11:15:04;;;;;;;;;;;21.90;33.10;;;;;;1529624;77;686;-69
2022/03/31 11:17:08;;;;;;;;;;;21.80;32.90;;;;;;1528198;76;686;-69
2022/03/31 11:19:10;;;;;;;;;;;21.90;33.10;;;;;;1526888;77;1516;-69
2022/03/31 11:21:11;;;;;;;;;;;21.90;33.00;;;;;;1526183;76;718;-70
2022/03/31 11:23:13;;;;;;;;;;;21.90;33.10;;;;;;1503335;78;669;-70
2022/03/31 11:25:16;;;;;;;;;;;21.90;33.10;;;;;;1533702;76;747;-70
2022/03/31 11:27:19;;;;;;;;;;;21.90;33.10;;;;;;1510799;77;1908;-70
2022/03/31 11:29:24;;;;;;;;;;;21.90;33.10;;;;;;1535763;76;1972;-71
2022/03/31 11:31:25;;;;;;;;;;;21.90;33.10;;;;;;1508827;77;1651;-70
2022/03/31 11:33:28;;;;;;;;;;;21.80;33.00;;;;;;1536822;75;797;-70
2022/03/31 11:35:30;;;;;;;;;;;21.90;33.20;;;;;;1507254;76;1884;-70
2022/03/31 11:37:32;;;;;;;;;;;21.90;33.20;;;;;;1535982;76;716;-70
2022/03/31 11:39:34;;;;;;;;;;;21.80;33.00;;;;;;1509221;76;1145;-72
2022/03/31 11:41:40;;;;;;;;;;;21.80;33.10;;;;;;1536383;76;918;-70
2022/03/31 11:43:42;;;;;;;;;;;21.80;33.10;;;;;;1521603;77;753;-68
2022/03/31 11:45:47;;;;;;;;;;;21.90;33.20;;;;;;1526584;76;799;-68
2022/03/31 11:47:55;;;;;;;;;;;21.80;33.10;;;;;;1519878;76;1921;-70
2022/03/31 11:49:58;;;;;;;;;;;21.80;33.20;;;;;;1510294;76;1143;-68
2022/03/31 11:52:00;;;;;;;;;;;21.90;33.40;;;;;;1536720;76;699;-68
2022/03/31 11:54:04;;;;;;;;;;;21.80;33.30;;;;;;1522118;76;811;-68
2022/03/31 11:56:08;;;;;;;;;;;21.80;33.40;;;;;;1534047;77;1736;-68
2022/03/31 11:58:10;;;;;;;;;;;21.80;33.40;;;;;;1506264;77;724;-68
2022/03/31 12:00:12;;;;;;;;;;;21.80;33.30;;;;;;1548019;76;1100;-68
2022/03/31 12:02:15;;;;;;;;;;;21.90;33.50;;;;;;1544259;76;734;-68
2022/03/31 12:04:17;;;;;;;;;;;21.80;33.40;;;;;;1540396;76;689;-68
2022/03/31 12:06:19;;;;;;;;;;;21.80;33.40;;;;;;1521863;77;736;-68
2022/03/31 12:08:21;;;;;;;;;;;21.80;33.40;;;;;;1517480;77;1941;-68
2022/03/31 12:10:23;;;;;;;;;;;21.80;33.40;;;;;;1504562;77;817;-68
2022/03/31 12:12:25;;;;;;;;;;;21.80;33.40;;;;;;1521764;75;788;-68
2022/03/31 12:14:28;;;;;;;;;;;21.80;33.40;;;;;;1508955;77;724;-68
2022/03/31 12:16:30;;;;;;;;;;;21.80;33.40;;;;;;1505375;77;824;-68
2022/03/31 12:18:34;;;;;;;;;;;21.80;33.40;;;;;;1502969;78;1139;-68
2022/03/31 12:20:36;;;;;;;;;;;21.80;33.40;;;;;;1538564;77;1471;-71
2022/03/31 12:22:38;;;;;;;;;;;21.80;33.50;;;;;;1508405;77;687;-70
2022/03/31 12:24:50;;;;;;;;;;;21.80;33.50;;;;;;1534471;76;802;-70